sensor_id;sensor_type;location;lat;lon;timestamp;P1;durP1;ratioP1;P2;durP2;ratioP2
27802;SDS011;15182;48.174;11.562;2023-02-26T00:00:47;5.03;;;4.93;;
27802;SDS011;15182;48.174;11.562;2023-02-26T00:03:18;5.80;;;5.47;;
27802;SDS011;15182;48.174;11.562;2023-02-26T00:05:50;5.23;;;5.03;;
27802;SDS011;15182;48.174;11.562;2023-02-26T00:08:26;5.40;;;5.10;;
27802;SDS011;15182;48.174;11.562;2023-02-26T00:10:59;4.97;;;4.87;;
27802;SDS011;15182;48.174;11.562;2023-02-26T00:13:34;4.87;;;4.77;;
27802;SDS011;15182;48.174;11.562;2023-02-26T00:16:12;5.07;;;4.97;;
27802;SDS011;15182;48.174;11.562;2023-02-26T00:18:53;5.10;;;5.00;;
27802;SDS011;15182;48.174;11.562;2023-02-26T00:21:27;4.83;;;4.70;;
27802;SDS011;15182;48.174;11.562;2023-02-26T00:24:02;4.90;;;4.70;;
27802;SDS011;15182;48.174;11.562;2023-02-26T00:26:34;5.03;;;4.93;;
27802;SDS011;15182;48.174;11.562;2023-02-26T00:29:08;6.97;;;4.90;;
27802;SDS011;15182;48.174;11.562;2023-02-26T00:31:41;5.50;;;5.20;;
27802;SDS011;15182;48.174;11.562;2023-02-26T00:34:14;5.83;;;5.33;;
27802;SDS011;15182;48.174;11.562;2023-02-26T00:36:49;5.00;;;4.90;;
27802;SDS011;15182;48.174;11.562;2023-02-26T00:39:38;4.60;;;4.50;;
27802;SDS011;15182;48.174;11.562;2023-02-26T00:42:17;5.13;;;5.03;;
27802;SDS011;15182;48.174;11.562;2023-02-26T00:44:48;5.00;;;4.90;;
27802;SDS011;15182;48.174;11.562;2023-02-26T00:47:23;5.33;;;5.23;;
27802;SDS011;15182;48.174;11.562;2023-02-26T00:50:03;4.57;;;4.47;;
27802;SDS011;15182;48.174;11.562;2023-02-26T00:52:45;4.27;;;4.17;;
27802;SDS011;15182;48.174;11.562;2023-02-26T00:55:26;4.60;;;4.50;;
27802;SDS011;15182;48.174;11.562;2023-02-26T00:57:58;4.50;;;4.40;;
27802;SDS011;15182;48.174;11.562;2023-02-26T01:00:30;4.80;;;4.70;;
27802;SDS011;15182;48.174;11.562;2023-02-26T01:03:04;5.07;;;4.80;;
27802;SDS011;15182;48.174;11.562;2023-02-26T01:05:37;4.73;;;4.70;;
27802;SDS011;15182;48.174;11.562;2023-02-26T01:08:14;4.33;;;4.33;;
27802;SDS011;15182;48.174;11.562;2023-02-26T01:10:55;4.10;;;4.03;;
27802;SDS011;15182;48.174;11.562;2023-02-26T01:13:27;4.50;;;4.33;;
27802;SDS011;15182;48.174;11.562;2023-02-26T01:16:00;4.77;;;4.67;;
27802;SDS011;15182;48.174;11.562;2023-02-26T01:18:40;4.07;;;4.07;;
27802;SDS011;15182;48.174;11.562;2023-02-26T01:21:19;4.50;;;4.50;;
27802;SDS011;15182;48.174;11.562;2023-02-26T01:23:59;4.63;;;4.53;;
27802;SDS011;15182;48.174;11.562;2023-02-26T01:26:36;4.63;;;4.50;;
27802;SDS011;15182;48.174;11.562;2023-02-26T01:29:09;4.40;;;4.30;;
27802;SDS011;15182;48.174;11.562;2023-02-26T01:31:45;4.30;;;4.20;;
27802;SDS011;15182;48.174;11.562;2023-02-26T01:34:25;4.50;;;4.40;;
27802;SDS011;15182;48.174;11.562;2023-02-26T01:37:03;4.27;;;4.17;;
27802;SDS011;15182;48.174;11.562;2023-02-26T01:39:55;4.70;;;4.60;;
27802;SDS011;15182;48.174;11.562;2023-02-26T01:43:01;5.13;;;4.93;;
27802;SDS011;15182;48.174;11.562;2023-02-26T01:45:38;4.40;;;4.30;;
27802;SDS011;15182;48.174;11.562;2023-02-26T01:48:28;4.77;;;4.67;;
27802;SDS011;15182;48.174;11.562;2023-02-26T01:51:04;4.07;;;3.87;;
27802;SDS011;15182;48.174;11.562;2023-02-26T01:53:37;4.53;;;4.53;;
27802;SDS011;15182;48.174;11.562;2023-02-26T01:56:10;4.77;;;4.57;;
27802;SDS011;15182;48.174;11.562;2023-02-26T01:58:46;4.90;;;4.90;;
27802;SDS011;15182;48.174;11.562;2023-02-26T02:01:20;4.83;;;4.57;;
27802;SDS011;15182;48.174;11.562;2023-02-26T02:03:52;4.80;;;4.53;;
27802;SDS011;15182;48.174;11.562;2023-02-26T02:06:26;4.40;;;4.07;;
27802;SDS011;15182;48.174;11.562;2023-02-26T02:08:59;4.90;;;4.77;;
27802;SDS011;15182;48.174;11.562;2023-02-26T02:11:34;5.00;;;4.90;;
27802;SDS011;15182;48.174;11.562;2023-02-26T02:14:11;4.73;;;4.73;;
27802;SDS011;15182;48.174;11.562;2023-02-26T02:16:53;4.83;;;4.63;;
27802;SDS011;15182;48.174;11.562;2023-02-26T02:19:43;4.97;;;4.70;;
27802;SDS011;15182;48.174;11.562;2023-02-26T02:23:05;4.97;;;4.83;;
27802;SDS011;15182;48.174;11.562;2023-02-26T02:29:21;4.30;;;4.17;;
27802;SDS011;15182;48.174;11.562;2023-02-26T02:32:14;4.50;;;4.40;;
27802;SDS011;15182;48.174;11.562;2023-02-26T02:34:50;4.10;;;3.90;;
27802;SDS011;15182;48.174;11.562;2023-02-26T02:37:29;4.20;;;4.10;;
27802;SDS011;15182;48.174;11.562;2023-02-26T02:40:06;5.00;;;4.73;;
27802;SDS011;15182;48.174;11.562;2023-02-26T02:42:42;5.07;;;4.87;;
27802;SDS011;15182;48.174;11.562;2023-02-26T02:45:22;4.80;;;4.70;;
27802;SDS011;15182;48.174;11.562;2023-02-26T02:48:01;4.43;;;4.43;;
27802;SDS011;15182;48.174;11.562;2023-02-26T02:50:39;5.07;;;4.97;;
27802;SDS011;15182;48.174;11.562;2023-02-26T02:53:13;4.63;;;4.53;;
27802;SDS011;15182;48.174;11.562;2023-02-26T02:55:50;5.00;;;4.90;;
27802;SDS011;15182;48.174;11.562;2023-02-26T02:58:31;4.60;;;4.37;;
27802;SDS011;15182;48.174;11.562;2023-02-26T03:01:09;4.50;;;4.40;;
27802;SDS011;15182;48.174;11.562;2023-02-26T03:03:49;4.70;;;4.60;;
27802;SDS011;15182;48.174;11.562;2023-02-26T03:06:27;4.40;;;4.30;;
27802;SDS011;15182;48.174;11.562;2023-02-26T03:08:58;4.40;;;4.17;;
27802;SDS011;15182;48.174;11.562;2023-02-26T03:11:33;3.83;;;3.73;;
27802;SDS011;15182;48.174;11.562;2023-02-26T03:14:05;4.37;;;4.27;;
27802;SDS011;15182;48.174;11.562;2023-02-26T03:16:43;4.07;;;3.97;;
27802;SDS011;15182;48.174;11.562;2023-02-26T03:19:30;4.40;;;4.30;;
27802;SDS011;15182;48.174;11.562;2023-02-26T03:22:08;4.37;;;4.27;;
27802;SDS011;15182;48.174;11.562;2023-02-26T03:25:11;4.30;;;4.30;;
27802;SDS011;15182;48.174;11.562;2023-02-26T03:27:48;4.50;;;4.47;;
27802;SDS011;15182;48.174;11.562;2023-02-26T03:30:32;4.53;;;4.33;;
27802;SDS011;15182;48.174;11.562;2023-02-26T03:33:09;4.30;;;4.20;;
27802;SDS011;15182;48.174;11.562;2023-02-26T03:35:46;5.00;;;4.80;;
27802;SDS011;15182;48.174;11.562;2023-02-26T03:38:27;4.90;;;4.73;;
27802;SDS011;15182;48.174;11.562;2023-02-26T03:41:07;4.73;;;4.53;;
27802;SDS011;15182;48.174;11.562;2023-02-26T03:43:43;4.40;;;4.30;;
27802;SDS011;15182;48.174;11.562;2023-02-26T03:46:20;5.10;;;4.83;;
27802;SDS011;15182;48.174;11.562;2023-02-26T03:49:00;4.57;;;4.47;;
27802;SDS011;15182;48.174;11.562;2023-02-26T03:51:40;4.40;;;4.20;;
27802;SDS011;15182;48.174;11.562;2023-02-26T03:54:34;4.43;;;4.33;;
27802;SDS011;15182;48.174;11.562;2023-02-26T03:57:31;4.97;;;4.83;;
27802;SDS011;15182;48.174;11.562;2023-02-26T04:00:28;4.87;;;4.67;;
27802;SDS011;15182;48.174;11.562;2023-02-26T04:03:02;4.47;;;4.23;;
27802;SDS011;15182;48.174;11.562;2023-02-26T04:05:40;4.53;;;4.27;;
27802;SDS011;15182;48.174;11.562;2023-02-26T04:08:19;4.57;;;4.47;;
27802;SDS011;15182;48.174;11.562;2023-02-26T04:10:51;4.50;;;4.40;;
27802;SDS011;15182;48.174;11.562;2023-02-26T04:13:29;4.43;;;4.23;;
27802;SDS011;15182;48.174;11.562;2023-02-26T04:16:01;4.47;;;4.37;;
27802;SDS011;15182;48.174;11.562;2023-02-26T04:18:34;4.73;;;4.63;;
27802;SDS011;15182;48.174;11.562;2023-02-26T04:21:09;4.37;;;4.17;;
27802;SDS011;15182;48.174;11.562;2023-02-26T04:23:44;4.87;;;4.67;;
27802;SDS011;15182;48.174;11.562;2023-02-26T04:26:15;5.03;;;4.83;;
27802;SDS011;15182;48.174;11.562;2023-02-26T04:28:47;6.03;;;5.67;;
27802;SDS011;15182;48.174;11.562;2023-02-26T04:31:19;4.73;;;4.33;;
27802;SDS011;15182;48.174;11.562;2023-02-26T04:33:50;4.83;;;4.63;;
27802;SDS011;15182;48.174;11.562;2023-02-26T04:36:21;4.77;;;4.57;;
27802;SDS011;15182;48.174;11.562;2023-02-26T04:38:54;4.60;;;4.40;;
27802;SDS011;15182;48.174;11.562;2023-02-26T04:41:26;5.07;;;4.80;;
27802;SDS011;15182;48.174;11.562;2023-02-26T04:43:57;4.13;;;4.00;;
27802;SDS011;15182;48.174;11.562;2023-02-26T04:46:30;4.47;;;4.37;;
27802;SDS011;15182;48.174;11.562;2023-02-26T04:49:02;4.50;;;4.40;;
27802;SDS011;15182;48.174;11.562;2023-02-26T04:51:36;4.93;;;4.83;;
27802;SDS011;15182;48.174;11.562;2023-02-26T04:54:09;4.97;;;4.77;;
27802;SDS011;15182;48.174;11.562;2023-02-26T04:56:43;4.63;;;4.30;;
27802;SDS011;15182;48.174;11.562;2023-02-26T04:59:15;4.50;;;4.40;;
27802;SDS011;15182;48.174;11.562;2023-02-26T05:01:48;5.13;;;4.87;;
27802;SDS011;15182;48.174;11.562;2023-02-26T05:04:20;4.80;;;4.70;;
27802;SDS011;15182;48.174;11.562;2023-02-26T05:06:54;4.80;;;4.53;;
27802;SDS011;15182;48.174;11.562;2023-02-26T05:09:27;4.47;;;4.20;;
27802;SDS011;15182;48.174;11.562;2023-02-26T05:11:59;5.10;;;4.93;;
27802;SDS011;15182;48.174;11.562;2023-02-26T05:14:30;4.70;;;4.60;;
27802;SDS011;15182;48.174;11.562;2023-02-26T05:17:02;4.63;;;4.43;;
27802;SDS011;15182;48.174;11.562;2023-02-26T05:19:33;4.80;;;4.50;;
27802;SDS011;15182;48.174;11.562;2023-02-26T05:22:09;4.87;;;4.77;;
27802;SDS011;15182;48.174;11.562;2023-02-26T05:24:41;4.90;;;4.50;;
27802;SDS011;15182;48.174;11.562;2023-02-26T05:27:13;5.20;;;4.90;;
27802;SDS011;15182;48.174;11.562;2023-02-26T05:29:48;5.27;;;5.07;;
27802;SDS011;15182;48.174;11.562;2023-02-26T05:32:19;5.30;;;5.17;;
27802;SDS011;15182;48.174;11.562;2023-02-26T05:34:52;4.50;;;4.40;;
27802;SDS011;15182;48.174;11.562;2023-02-26T05:37:23;5.40;;;5.20;;
27802;SDS011;15182;48.174;11.562;2023-02-26T05:39:57;4.57;;;4.43;;
27802;SDS011;15182;48.174;11.562;2023-02-26T05:42:30;4.47;;;4.37;;
27802;SDS011;15182;48.174;11.562;2023-02-26T05:45:01;4.67;;;4.40;;
27802;SDS011;15182;48.174;11.562;2023-02-26T05:47:33;5.27;;;4.97;;
27802;SDS011;15182;48.174;11.562;2023-02-26T05:50:05;4.70;;;4.50;;
27802;SDS011;15182;48.174;11.562;2023-02-26T05:52:38;5.00;;;4.90;;
27802;SDS011;15182;48.174;11.562;2023-02-26T05:55:11;4.80;;;4.50;;
27802;SDS011;15182;48.174;11.562;2023-02-26T05:57:45;5.87;;;4.57;;
27802;SDS011;15182;48.174;11.562;2023-02-26T06:00:16;4.80;;;4.70;;
27802;SDS011;15182;48.174;11.562;2023-02-26T06:02:51;4.93;;;4.83;;
27802;SDS011;15182;48.174;11.562;2023-02-26T06:05:22;4.27;;;4.17;;
27802;SDS011;15182;48.174;11.562;2023-02-26T06:07:55;5.00;;;4.90;;
27802;SDS011;15182;48.174;11.562;2023-02-26T06:10:28;4.67;;;4.57;;
27802;SDS011;15182;48.174;11.562;2023-02-26T06:12:59;5.27;;;5.07;;
27802;SDS011;15182;48.174;11.562;2023-02-26T06:15:30;5.20;;;4.90;;
27802;SDS011;15182;48.174;11.562;2023-02-26T06:18:02;5.63;;;5.33;;
27802;SDS011;15182;48.174;11.562;2023-02-26T06:20:33;5.37;;;5.17;;
27802;SDS011;15182;48.174;11.562;2023-02-26T06:23:04;5.00;;;4.90;;
27802;SDS011;15182;48.174;11.562;2023-02-26T06:25:37;5.40;;;5.17;;
27802;SDS011;15182;48.174;11.562;2023-02-26T06:28:08;5.53;;;5.00;;
27802;SDS011;15182;48.174;11.562;2023-02-26T06:30:39;5.47;;;4.97;;
27802;SDS011;15182;48.174;11.562;2023-02-26T06:33:10;5.77;;;5.57;;
27802;SDS011;15182;48.174;11.562;2023-02-26T06:35:42;6.50;;;5.10;;
27802;SDS011;15182;48.174;11.562;2023-02-26T06:38:13;5.20;;;5.00;;
27802;SDS011;15182;48.174;11.562;2023-02-26T06:40:47;5.53;;;4.60;;
27802;SDS011;15182;48.174;11.562;2023-02-26T06:43:18;4.97;;;4.97;;
27802;SDS011;15182;48.174;11.562;2023-02-26T06:45:57;5.03;;;4.90;;
27802;SDS011;15182;48.174;11.562;2023-02-26T06:48:28;5.30;;;5.00;;
27802;SDS011;15182;48.174;11.562;2023-02-26T06:51:01;5.17;;;4.97;;
27802;SDS011;15182;48.174;11.562;2023-02-26T06:53:33;5.10;;;4.77;;
27802;SDS011;15182;48.174;11.562;2023-02-26T06:56:06;4.67;;;4.57;;
27802;SDS011;15182;48.174;11.562;2023-02-26T06:58:38;4.50;;;4.43;;
27802;SDS011;15182;48.174;11.562;2023-02-26T07:01:09;5.50;;;5.10;;
27802;SDS011;15182;48.174;11.562;2023-02-26T07:03:40;5.17;;;4.97;;
27802;SDS011;15182;48.174;11.562;2023-02-26T07:06:12;4.40;;;4.30;;
27802;SDS011;15182;48.174;11.562;2023-02-26T07:08:43;5.17;;;4.90;;
27802;SDS011;15182;48.174;11.562;2023-02-26T07:11:15;5.90;;;5.63;;
27802;SDS011;15182;48.174;11.562;2023-02-26T07:13:47;4.90;;;4.70;;
27802;SDS011;15182;48.174;11.562;2023-02-26T07:16:18;4.87;;;4.77;;
27802;SDS011;15182;48.174;11.562;2023-02-26T07:18:51;5.87;;;5.47;;
27802;SDS011;15182;48.174;11.562;2023-02-26T07:21:22;5.27;;;5.00;;
27802;SDS011;15182;48.174;11.562;2023-02-26T07:23:55;4.90;;;4.80;;
27802;SDS011;15182;48.174;11.562;2023-02-26T07:26:28;5.23;;;5.00;;
27802;SDS011;15182;48.174;11.562;2023-02-26T07:29:01;5.60;;;5.40;;
27802;SDS011;15182;48.174;11.562;2023-02-26T07:31:32;5.20;;;4.87;;
27802;SDS011;15182;48.174;11.562;2023-02-26T07:34:05;5.40;;;5.23;;
27802;SDS011;15182;48.174;11.562;2023-02-26T07:36:36;7.07;;;6.43;;
27802;SDS011;15182;48.174;11.562;2023-02-26T07:39:08;5.70;;;5.30;;
27802;SDS011;15182;48.174;11.562;2023-02-26T07:41:39;12.73;;;7.27;;
27802;SDS011;15182;48.174;11.562;2023-02-26T07:44:14;6.27;;;5.73;;
27802;SDS011;15182;48.174;11.562;2023-02-26T07:46:45;10.40;;;7.37;;
27802;SDS011;15182;48.174;11.562;2023-02-26T07:49:16;7.87;;;7.07;;
27802;SDS011;15182;48.174;11.562;2023-02-26T07:51:47;7.73;;;6.93;;
27802;SDS011;15182;48.174;11.562;2023-02-26T07:54:18;7.17;;;6.63;;
27802;SDS011;15182;48.174;11.562;2023-02-26T07:56:51;6.43;;;5.93;;
27802;SDS011;15182;48.174;11.562;2023-02-26T07:59:23;6.30;;;5.90;;
27802;SDS011;15182;48.174;11.562;2023-02-26T08:01:54;6.57;;;6.10;;
27802;SDS011;15182;48.174;11.562;2023-02-26T08:04:25;6.43;;;6.03;;
27802;SDS011;15182;48.174;11.562;2023-02-26T08:06:59;5.57;;;5.37;;
27802;SDS011;15182;48.174;11.562;2023-02-26T08:09:30;5.57;;;5.43;;
27802;SDS011;15182;48.174;11.562;2023-02-26T08:12:03;5.97;;;5.50;;
27802;SDS011;15182;48.174;11.562;2023-02-26T08:14:34;4.93;;;4.70;;
27802;SDS011;15182;48.174;11.562;2023-02-26T08:17:08;6.07;;;5.67;;
27802;SDS011;15182;48.174;11.562;2023-02-26T08:19:39;5.37;;;5.13;;
27802;SDS011;15182;48.174;11.562;2023-02-26T08:22:12;6.10;;;5.73;;
27802;SDS011;15182;48.174;11.562;2023-02-26T08:24:44;7.80;;;7.20;;
27802;SDS011;15182;48.174;11.562;2023-02-26T08:27:16;6.97;;;6.53;;
27802;SDS011;15182;48.174;11.562;2023-02-26T08:29:47;5.57;;;5.37;;
27802;SDS011;15182;48.174;11.562;2023-02-26T08:32:19;6.20;;;5.90;;
27802;SDS011;15182;48.174;11.562;2023-02-26T08:34:51;5.47;;;5.37;;
27802;SDS011;15182;48.174;11.562;2023-02-26T08:37:23;6.37;;;5.97;;
27802;SDS011;15182;48.174;11.562;2023-02-26T08:39:55;7.27;;;6.87;;
27802;SDS011;15182;48.174;11.562;2023-02-26T08:42:27;6.17;;;5.87;;
27802;SDS011;15182;48.174;11.562;2023-02-26T08:44:59;5.10;;;5.00;;
27802;SDS011;15182;48.174;11.562;2023-02-26T08:47:31;25.03;;;11.47;;
27802;SDS011;15182;48.174;11.562;2023-02-26T08:50:04;12.30;;;9.17;;
27802;SDS011;15182;48.174;11.562;2023-02-26T08:52:37;7.67;;;6.90;;
27802;SDS011;15182;48.174;11.562;2023-02-26T08:55:12;7.37;;;6.77;;
27802;SDS011;15182;48.174;11.562;2023-02-26T08:57:44;9.77;;;8.33;;
27802;SDS011;15182;48.174;11.562;2023-02-26T09:00:18;6.77;;;6.47;;
27802;SDS011;15182;48.174;11.562;2023-02-26T09:02:50;5.67;;;5.40;;
27802;SDS011;15182;48.174;11.562;2023-02-26T09:05:21;5.93;;;5.83;;
27802;SDS011;15182;48.174;11.562;2023-02-26T09:07:52;5.83;;;5.53;;
27802;SDS011;15182;48.174;11.562;2023-02-26T09:10:23;6.37;;;6.07;;
27802;SDS011;15182;48.174;11.562;2023-02-26T09:12:56;6.27;;;5.87;;
27802;SDS011;15182;48.174;11.562;2023-02-26T09:15:28;6.07;;;5.77;;
27802;SDS011;15182;48.174;11.562;2023-02-26T09:17:59;5.93;;;5.73;;
27802;SDS011;15182;48.174;11.562;2023-02-26T09:20:31;5.87;;;5.60;;
27802;SDS011;15182;48.174;11.562;2023-02-26T09:23:02;5.50;;;5.30;;
27802;SDS011;15182;48.174;11.562;2023-02-26T09:25:34;5.10;;;4.93;;
27802;SDS011;15182;48.174;11.562;2023-02-26T09:28:06;5.70;;;5.40;;
27802;SDS011;15182;48.174;11.562;2023-02-26T09:30:37;6.07;;;5.70;;
27802;SDS011;15182;48.174;11.562;2023-02-26T09:33:11;5.70;;;5.17;;
27802;SDS011;15182;48.174;11.562;2023-02-26T09:35:42;5.63;;;5.40;;
27802;SDS011;15182;48.174;11.562;2023-02-26T09:38:17;5.40;;;5.23;;
27802;SDS011;15182;48.174;11.562;2023-02-26T09:40:49;5.57;;;5.37;;
27802;SDS011;15182;48.174;11.562;2023-02-26T09:43:42;5.97;;;5.87;;
27802;SDS011;15182;48.174;11.562;2023-02-26T09:46:24;5.50;;;5.30;;
27802;SDS011;15182;48.174;11.562;2023-02-26T09:49:14;5.80;;;5.63;;
27802;SDS011;15182;48.174;11.562;2023-02-26T09:51:53;5.80;;;5.60;;
27802;SDS011;15182;48.174;11.562;2023-02-26T09:54:30;5.50;;;5.23;;
27802;SDS011;15182;48.174;11.562;2023-02-26T09:57:13;5.27;;;5.17;;
27802;SDS011;15182;48.174;11.562;2023-02-26T09:59:53;6.00;;;5.70;;
27802;SDS011;15182;48.174;11.562;2023-02-26T10:02:28;6.80;;;6.47;;
27802;SDS011;15182;48.174;11.562;2023-02-26T10:05:19;6.03;;;5.90;;
27802;SDS011;15182;48.174;11.562;2023-02-26T10:07:59;5.63;;;5.43;;
27802;SDS011;15182;48.174;11.562;2023-02-26T10:10:36;6.13;;;5.83;;
27802;SDS011;15182;48.174;11.562;2023-02-26T10:13:18;5.90;;;5.73;;
27802;SDS011;15182;48.174;11.562;2023-02-26T10:15:56;6.50;;;6.10;;
27802;SDS011;15182;48.174;11.562;2023-02-26T10:18:35;5.53;;;5.43;;
27802;SDS011;15182;48.174;11.562;2023-02-26T10:21:14;5.20;;;5.10;;
27802;SDS011;15182;48.174;11.562;2023-02-26T10:23:52;5.40;;;5.30;;
27802;SDS011;15182;48.174;11.562;2023-02-26T10:26:29;5.80;;;5.60;;
27802;SDS011;15182;48.174;11.562;2023-02-26T10:29:05;6.33;;;6.13;;
27802;SDS011;15182;48.174;11.562;2023-02-26T10:32:00;5.83;;;5.63;;
27802;SDS011;15182;48.174;11.562;2023-02-26T10:34:44;5.97;;;5.77;;
27802;SDS011;15182;48.174;11.562;2023-02-26T10:37:27;5.90;;;5.70;;
27802;SDS011;15182;48.174;11.562;2023-02-26T10:40:07;5.67;;;5.47;;
27802;SDS011;15182;48.174;11.562;2023-02-26T10:42:46;5.10;;;5.00;;
27802;SDS011;15182;48.174;11.562;2023-02-26T10:48:18;5.47;;;5.13;;
27802;SDS011;15182;48.174;11.562;2023-02-26T10:51:04;5.47;;;5.37;;
27802;SDS011;15182;48.174;11.562;2023-02-26T10:53:42;5.13;;;5.03;;
27802;SDS011;15182;48.174;11.562;2023-02-26T10:56:20;5.40;;;5.30;;
27802;SDS011;15182;48.174;11.562;2023-02-26T10:58:53;5.50;;;5.30;;
27802;SDS011;15182;48.174;11.562;2023-02-26T11:01:28;5.57;;;5.47;;
27802;SDS011;15182;48.174;11.562;2023-02-26T11:04:04;5.60;;;5.40;;
27802;SDS011;15182;48.174;11.562;2023-02-26T11:06:40;5.40;;;5.20;;
27802;SDS011;15182;48.174;11.562;2023-02-26T11:09:19;5.60;;;5.40;;
27802;SDS011;15182;48.174;11.562;2023-02-26T11:11:54;5.23;;;4.87;;
27802;SDS011;15182;48.174;11.562;2023-02-26T11:14:33;5.80;;;5.70;;
27802;SDS011;15182;48.174;11.562;2023-02-26T11:17:06;6.43;;;6.23;;
27802;SDS011;15182;48.174;11.562;2023-02-26T11:19:45;5.50;;;5.40;;
27802;SDS011;15182;48.174;11.562;2023-02-26T11:22:25;4.90;;;4.80;;
27802;SDS011;15182;48.174;11.562;2023-02-26T11:25:02;5.40;;;5.30;;
27802;SDS011;15182;48.174;11.562;2023-02-26T11:27:37;5.50;;;5.13;;
27802;SDS011;15182;48.174;11.562;2023-02-26T11:30:14;5.03;;;4.93;;
27802;SDS011;15182;48.174;11.562;2023-02-26T11:32:48;5.57;;;5.47;;
27802;SDS011;15182;48.174;11.562;2023-02-26T11:35:24;5.37;;;5.20;;
27802;SDS011;15182;48.174;11.562;2023-02-26T11:38:00;5.50;;;5.30;;
27802;SDS011;15182;48.174;11.562;2023-02-26T11:40:36;6.23;;;5.93;;
27802;SDS011;15182;48.174;11.562;2023-02-26T11:43:11;5.43;;;5.33;;
27802;SDS011;15182;48.174;11.562;2023-02-26T11:45:47;5.47;;;5.27;;
27802;SDS011;15182;48.174;11.562;2023-02-26T11:48:25;5.27;;;5.17;;
27802;SDS011;15182;48.174;11.562;2023-02-26T11:51:06;5.20;;;5.00;;
27802;SDS011;15182;48.174;11.562;2023-02-26T11:53:47;5.83;;;5.37;;
27802;SDS011;15182;48.174;11.562;2023-02-26T11:56:28;4.97;;;4.87;;
27802;SDS011;15182;48.174;11.562;2023-02-26T11:59:06;4.97;;;4.87;;
27802;SDS011;15182;48.174;11.562;2023-02-26T12:01:46;5.30;;;5.20;;
27802;SDS011;15182;48.174;11.562;2023-02-26T12:04:20;4.93;;;4.83;;
27802;SDS011;15182;48.174;11.562;2023-02-26T12:06:54;5.57;;;5.37;;
27802;SDS011;15182;48.174;11.562;2023-02-26T12:09:28;9.57;;;7.60;;
27802;SDS011;15182;48.174;11.562;2023-02-26T12:12:03;5.73;;;5.53;;
27802;SDS011;15182;48.174;11.562;2023-02-26T12:14:43;5.20;;;5.10;;
27802;SDS011;15182;48.174;11.562;2023-02-26T12:20:37;5.53;;;5.33;;
27802;SDS011;15182;48.174;11.562;2023-02-26T12:23:19;5.37;;;5.17;;
27802;SDS011;15182;48.174;11.562;2023-02-26T12:26:03;4.80;;;4.70;;
27802;SDS011;15182;48.174;11.562;2023-02-26T12:29:06;4.73;;;4.70;;
27802;SDS011;15182;48.174;11.562;2023-02-26T12:32:07;4.43;;;4.17;;
27802;SDS011;15182;48.174;11.562;2023-02-26T12:35:06;5.13;;;5.03;;
27802;SDS011;15182;48.174;11.562;2023-02-26T12:38:07;4.67;;;4.57;;
27802;SDS011;15182;48.174;11.562;2023-02-26T12:41:06;4.80;;;4.70;;
27802;SDS011;15182;48.174;11.562;2023-02-26T12:43:58;4.57;;;4.27;;
27802;SDS011;15182;48.174;11.562;2023-02-26T12:46:42;4.20;;;4.20;;
27802;SDS011;15182;48.174;11.562;2023-02-26T12:49:32;4.47;;;4.47;;
27802;SDS011;15182;48.174;11.562;2023-02-26T12:52:25;4.47;;;4.17;;
27802;SDS011;15182;48.174;11.562;2023-02-26T12:55:22;4.47;;;4.30;;
27802;SDS011;15182;48.174;11.562;2023-02-26T12:58:20;4.10;;;4.00;;
27802;SDS011;15182;48.174;11.562;2023-02-26T13:04:06;4.03;;;4.03;;
27802;SDS011;15182;48.174;11.562;2023-02-26T13:07:02;4.30;;;4.30;;
27802;SDS011;15182;48.174;11.562;2023-02-26T13:09:45;4.80;;;4.70;;
27802;SDS011;15182;48.174;11.562;2023-02-26T13:12:30;4.20;;;4.10;;
27802;SDS011;15182;48.174;11.562;2023-02-26T13:15:21;4.17;;;4.17;;
27802;SDS011;15182;48.174;11.562;2023-02-26T13:18:07;4.63;;;4.53;;
27802;SDS011;15182;48.174;11.562;2023-02-26T13:20:49;4.30;;;4.07;;
27802;SDS011;15182;48.174;11.562;2023-02-26T13:23:27;4.00;;;4.00;;
27802;SDS011;15182;48.174;11.562;2023-02-26T13:26:04;4.20;;;3.83;;
27802;SDS011;15182;48.174;11.562;2023-02-26T13:28:39;4.67;;;4.57;;
27802;SDS011;15182;48.174;11.562;2023-02-26T13:31:16;4.37;;;4.27;;
27802;SDS011;15182;48.174;11.562;2023-02-26T13:33:51;4.37;;;4.17;;
27802;SDS011;15182;48.174;11.562;2023-02-26T13:36:27;4.40;;;4.30;;
27802;SDS011;15182;48.174;11.562;2023-02-26T13:39:07;4.50;;;4.40;;
27802;SDS011;15182;48.174;11.562;2023-02-26T13:41:52;4.53;;;4.47;;
27802;SDS011;15182;48.174;11.562;2023-02-26T13:44:30;4.90;;;4.80;;
27802;SDS011;15182;48.174;11.562;2023-02-26T13:47:14;4.87;;;4.77;;
27802;SDS011;15182;48.174;11.562;2023-02-26T13:50:24;4.97;;;4.87;;
27802;SDS011;15182;48.174;11.562;2023-02-26T13:53:02;5.43;;;5.13;;
27802;SDS011;15182;48.174;11.562;2023-02-26T13:56:05;5.03;;;4.83;;
27802;SDS011;15182;48.174;11.562;2023-02-26T13:58:42;5.30;;;5.20;;
27802;SDS011;15182;48.174;11.562;2023-02-26T14:01:18;5.50;;;5.30;;
27802;SDS011;15182;48.174;11.562;2023-02-26T14:04:07;5.17;;;4.97;;
27802;SDS011;15182;48.174;11.562;2023-02-26T14:06:52;4.87;;;4.67;;
27802;SDS011;15182;48.174;11.562;2023-02-26T14:09:29;5.47;;;5.17;;
27802;SDS011;15182;48.174;11.562;2023-02-26T14:12:22;4.30;;;4.20;;
27802;SDS011;15182;48.174;11.562;2023-02-26T14:18:18;4.73;;;4.63;;
27802;SDS011;15182;48.174;11.562;2023-02-26T14:20:54;5.10;;;5.00;;
27802;SDS011;15182;48.174;11.562;2023-02-26T14:24:04;5.77;;;5.43;;
27802;SDS011;15182;48.174;11.562;2023-02-26T14:26:44;5.43;;;5.23;;
27802;SDS011;15182;48.174;11.562;2023-02-26T14:29:36;4.87;;;4.80;;
27802;SDS011;15182;48.174;11.562;2023-02-26T14:32:14;5.00;;;4.90;;
27802;SDS011;15182;48.174;11.562;2023-02-26T14:34:56;5.23;;;5.13;;
27802;SDS011;15182;48.174;11.562;2023-02-26T14:37:37;4.90;;;4.77;;
27802;SDS011;15182;48.174;11.562;2023-02-26T14:40:13;5.03;;;4.93;;
27802;SDS011;15182;48.174;11.562;2023-02-26T14:42:50;4.83;;;4.73;;
27802;SDS011;15182;48.174;11.562;2023-02-26T14:45:27;4.50;;;4.40;;
27802;SDS011;15182;48.174;11.562;2023-02-26T14:48:04;4.03;;;4.03;;
27802;SDS011;15182;48.174;11.562;2023-02-26T14:50:45;4.20;;;4.17;;
27802;SDS011;15182;48.174;11.562;2023-02-26T14:53:41;4.60;;;4.50;;
27802;SDS011;15182;48.174;11.562;2023-02-26T14:56:36;5.23;;;4.97;;
27802;SDS011;15182;48.174;11.562;2023-02-26T14:59:23;4.80;;;4.50;;
27802;SDS011;15182;48.174;11.562;2023-02-26T15:02:13;4.83;;;4.73;;
27802;SDS011;15182;48.174;11.562;2023-02-26T15:05:04;5.17;;;4.87;;
27802;SDS011;15182;48.174;11.562;2023-02-26T15:08:07;4.60;;;4.40;;
27802;SDS011;15182;48.174;11.562;2023-02-26T15:11:10;4.93;;;4.63;;
27802;SDS011;15182;48.174;11.562;2023-02-26T15:13:57;4.57;;;4.53;;
27802;SDS011;15182;48.174;11.562;2023-02-26T15:16:53;5.13;;;5.03;;
27802;SDS011;15182;48.174;11.562;2023-02-26T15:19:36;4.67;;;4.57;;
27802;SDS011;15182;48.174;11.562;2023-02-26T15:22:23;5.20;;;4.90;;
27802;SDS011;15182;48.174;11.562;2023-02-26T15:25:05;4.60;;;4.50;;
27802;SDS011;15182;48.174;11.562;2023-02-26T15:27:45;5.10;;;4.63;;
27802;SDS011;15182;48.174;11.562;2023-02-26T15:30:17;4.70;;;4.60;;
27802;SDS011;15182;48.174;11.562;2023-02-26T15:32:54;4.73;;;4.63;;
27802;SDS011;15182;48.174;11.562;2023-02-26T15:35:29;5.00;;;4.90;;
27802;SDS011;15182;48.174;11.562;2023-02-26T15:38:01;6.03;;;5.73;;
27802;SDS011;15182;48.174;11.562;2023-02-26T15:40:35;5.53;;;5.00;;
27802;SDS011;15182;48.174;11.562;2023-02-26T15:43:08;4.63;;;4.53;;
27802;SDS011;15182;48.174;11.562;2023-02-26T15:45:46;4.60;;;4.50;;
27802;SDS011;15182;48.174;11.562;2023-02-26T15:48:20;5.43;;;5.33;;
27802;SDS011;15182;48.174;11.562;2023-02-26T15:50:56;4.97;;;4.87;;